Airfield :
LOGIN :

Register | Disclaimer

   EN    FR    IT 

 










Legend :    VFR   Marginal VFR   IFR   Intensive IFR   Very Intensive IFR
Visi :
Ceiling :
>= 8 km
>= 3000ft
5 to 8 km
1000 to 3000 ft
1500m to 5 km
500 to 1000 ft
800 to 1500m
200 to 500 ft
< 800m
< 200 ft
Symbols :   Thunderstorms  Fog  Heavy snow  Heavy precipitations  Wind > 20 kt
SIGMETs :     Misc.  Thunderstorms  Icing  Turbulence  Mountain Waves  Volcanic Ashes







- Airport Elevation : 309 ft
- IATA code : FNI
- Download approach charts


LFTW - Nîmes Garons

CURRENT METAR :
  • 130700Z AUTO 05005KT 9999 OVC049 02/M01 Q1010 TEMPO BKN007 OVC025

EXPIRED METARs :
  • 130630Z AUTO 05005KT 9999 OVC049 02/M01 Q1011 TEMPO BKN007 OVC025
  • 130600Z AUTO 04004KT 9999 OVC048 01/M01 Q1011 NOSIG
  • 130530Z AUTO 04003KT 9999 OVC049 01/M01 Q1011 NOSIG
  • 130500Z AUTO 04004KT CAVOK 01/M01 Q1011 NOSIG
  • 130430Z AUTO 05004KT 020V080 CAVOK 00/M02 Q1011 NOSIG
  • 130400Z AUTO 04004KT CAVOK 01/M02 Q1012 NOSIG

TAF TAF LFTW
Valid from the 13 at 03:00 until the 14 at 03:00 UTC


130200Z 1303/1403 04005KT 9999 OVC045
TEMPO 1308/1403 5000 -RA BKN007 OVC025
No reported NOTAMs for that airfield.



MET'MAP, your aeronautical weather chart ! - Copyright ORBIFLY December 2007 - Disclaimer

ORBIFLY MET'MAP TEAM :

Programming & Development : Alexandra Zaïnal
Concept & Development : Baudouin d'Aumeries
Co-Development & Prog : Marc-Olivier Méhu
Technical & hardware support : Manuel Goepfert

Contact : metmap@orbifly.com




SOURCES & CREDITS :

   NOAA